sensor_id;sensor_type;location;lat;lon;timestamp;pressure;altitude;pressure_sealevel;temperature;humidity
72285;BME280;60220;53.552;10.092;2023-05-14T00:01:40;101823.88;;;14.96;52.40
72285;BME280;60220;53.552;10.092;2023-05-14T00:04:07;101822.22;;;14.88;53.08
72285;BME280;60220;53.552;10.092;2023-05-14T00:06:36;101820.63;;;14.76;54.51
72285;BME280;60220;53.552;10.092;2023-05-14T00:09:02;101811.59;;;14.92;53.53
72285;BME280;60220;53.552;10.092;2023-05-14T00:11:29;101810.59;;;15.01;52.74
72285;BME280;60220;53.552;10.092;2023-05-14T00:13:57;101813.50;;;14.81;52.89
72285;BME280;60220;53.552;10.092;2023-05-14T00:16:26;101811.75;;;14.80;54.00
72285;BME280;60220;53.552;10.092;2023-05-14T00:18:52;101805.16;;;14.46;54.67
72285;BME280;60220;53.552;10.092;2023-05-14T00:21:19;101814.00;;;14.40;54.34
72285;BME280;60220;53.552;10.092;2023-05-14T00:23:46;101803.38;;;14.45;55.71
72285;BME280;60220;53.552;10.092;2023-05-14T00:26:13;101800.72;;;14.48;54.81
72285;BME280;60220;53.552;10.092;2023-05-14T00:28:39;101808.03;;;14.25;55.84
72285;BME280;60220;53.552;10.092;2023-05-14T00:31:07;101804.00;;;13.89;56.62
72285;BME280;60220;53.552;10.092;2023-05-14T00:33:34;101795.00;;;14.09;56.59
72285;BME280;60220;53.552;10.092;2023-05-14T00:36:01;101793.75;;;14.44;56.17
72285;BME280;60220;53.552;10.092;2023-05-14T00:38:28;101791.44;;;14.10;56.44
72285;BME280;60220;53.552;10.092;2023-05-14T00:40:55;101793.59;;;13.73;57.71
72285;BME280;60220;53.552;10.092;2023-05-14T00:43:22;101797.00;;;13.83;57.33
72285;BME280;60220;53.552;10.092;2023-05-14T00:45:52;101804.03;;;13.84;57.51
72285;BME280;60220;53.552;10.092;2023-05-14T00:48:21;101797.25;;;13.56;58.12
72285;BME280;60220;53.552;10.092;2023-05-14T00:50:49;101802.59;;;14.35;55.97
72285;BME280;60220;53.552;10.092;2023-05-14T00:53:17;101799.34;;;14.12;55.66
72285;BME280;60220;53.552;10.092;2023-05-14T00:55:46;101805.28;;;13.44;59.04
72285;BME280;60220;53.552;10.092;2023-05-14T00:58:14;101813.09;;;13.53;58.94
72285;BME280;60220;53.552;10.092;2023-05-14T01:00:41;101803.72;;;14.14;57.09
72285;BME280;60220;53.552;10.092;2023-05-14T01:03:08;101811.03;;;13.88;57.67
72285;BME280;60220;53.552;10.092;2023-05-14T01:05:41;101812.94;;;13.74;58.65
72285;BME280;60220;53.552;10.092;2023-05-14T01:08:17;101806.31;;;14.19;56.79
72285;BME280;60220;53.552;10.092;2023-05-14T01:10:50;101814.81;;;13.60;58.08
72285;BME280;60220;53.552;10.092;2023-05-14T01:13:21;101803.31;;;14.54;56.21
72285;BME280;60220;53.552;10.092;2023-05-14T01:15:54;101806.00;;;13.61;57.58
72285;BME280;60220;53.552;10.092;2023-05-14T01:18:22;101815.53;;;13.77;57.75
72285;BME280;60220;53.552;10.092;2023-05-14T01:20:51;101806.53;;;13.98;57.35
72285;BME280;60220;53.552;10.092;2023-05-14T01:23:21;101812.78;;;13.89;57.36
72285;BME280;60220;53.552;10.092;2023-05-14T01:25:48;101811.78;;;14.02;56.46
72285;BME280;60220;53.552;10.092;2023-05-14T01:28:16;101812.25;;;13.49;58.26
72285;BME280;60220;53.552;10.092;2023-05-14T01:30:48;101807.06;;;13.37;58.59
72285;BME280;60220;53.552;10.092;2023-05-14T01:33:18;101805.19;;;13.51;57.89
72285;BME280;60220;53.552;10.092;2023-05-14T01:35:47;101801.63;;;13.57;57.93
72285;BME280;60220;53.552;10.092;2023-05-14T01:38:16;101804.59;;;13.08;60.24
72285;BME280;60220;53.552;10.092;2023-05-14T01:40:45;101801.69;;;13.51;58.58
72285;BME280;60220;53.552;10.092;2023-05-14T01:43:14;101808.09;;;13.10;60.31
72285;BME280;60220;53.552;10.092;2023-05-14T01:45:41;101805.28;;;13.42;59.22
72285;BME280;60220;53.552;10.092;2023-05-14T01:48:08;101798.13;;;13.58;58.83
72285;BME280;60220;53.552;10.092;2023-05-14T01:50:35;101798.44;;;13.17;60.01
72285;BME280;60220;53.552;10.092;2023-05-14T01:53:02;101796.66;;;13.17;59.90
72285;BME280;60220;53.552;10.092;2023-05-14T01:55:33;101794.94;;;13.06;60.16
72285;BME280;60220;53.552;10.092;2023-05-14T01:58:01;101794.16;;;12.93;60.67
72285;BME280;60220;53.552;10.092;2023-05-14T02:00:28;101792.44;;;12.87;60.94
72285;BME280;60220;53.552;10.092;2023-05-14T02:02:55;101797.69;;;12.89;60.90
72285;BME280;60220;53.552;10.092;2023-05-14T02:05:21;101796.75;;;12.96;60.56
72285;BME280;60220;53.552;10.092;2023-05-14T02:07:48;101791.56;;;12.87;60.93
72285;BME280;60220;53.552;10.092;2023-05-14T02:10:18;101800.38;;;12.83;60.72
72285;BME280;60220;53.552;10.092;2023-05-14T02:12:45;101799.53;;;12.72;61.15
72285;BME280;60220;53.552;10.092;2023-05-14T02:15:13;101796.03;;;12.73;61.68
72285;BME280;60220;53.552;10.092;2023-05-14T02:17:39;101785.47;;;12.79;62.12
72285;BME280;60220;53.552;10.092;2023-05-14T02:20:07;101785.44;;;12.82;61.96
72285;BME280;60220;53.552;10.092;2023-05-14T02:22:37;101792.50;;;12.80;61.98
72285;BME280;60220;53.552;10.092;2023-05-14T02:25:07;101781.88;;;12.86;61.45
72285;BME280;60220;53.552;10.092;2023-05-14T02:27:34;101789.00;;;12.70;62.04
72285;BME280;60220;53.552;10.092;2023-05-14T02:30:00;101789.88;;;12.74;62.29
72285;BME280;60220;53.552;10.092;2023-05-14T02:32:28;101781.00;;;12.90;61.61
72285;BME280;60220;53.552;10.092;2023-05-14T02:34:55;101781.91;;;12.89;60.83
72285;BME280;60220;53.552;10.092;2023-05-14T02:37:22;101781.97;;;12.71;62.16
72285;BME280;60220;53.552;10.092;2023-05-14T02:39:48;101774.00;;;12.83;61.97
72285;BME280;60220;53.552;10.092;2023-05-14T02:42:15;101771.41;;;12.77;61.88
72285;BME280;60220;53.552;10.092;2023-05-14T02:44:42;101776.78;;;12.59;62.50
72285;BME280;60220;53.552;10.092;2023-05-14T02:47:11;101780.22;;;12.73;61.97
72285;BME280;60220;53.552;10.092;2023-05-14T02:49:39;101773.47;;;13.60;59.60
72285;BME280;60220;53.552;10.092;2023-05-14T02:52:06;101769.78;;;13.79;57.60
72285;BME280;60220;53.552;10.092;2023-05-14T02:54:35;101767.97;;;12.63;61.73
72285;BME280;60220;53.552;10.092;2023-05-14T02:57:02;101772.16;;;12.95;60.74
72285;BME280;60220;53.552;10.092;2023-05-14T02:59:30;101766.09;;;12.89;60.90
72285;BME280;60220;53.552;10.092;2023-05-14T03:01:57;101767.56;;;13.32;60.38
72285;BME280;60220;53.552;10.092;2023-05-14T03:04:24;101767.06;;;12.65;61.70
72285;BME280;60220;53.552;10.092;2023-05-14T03:06:52;101768.91;;;12.51;62.72
72285;BME280;60220;53.552;10.092;2023-05-14T03:09:21;101759.28;;;12.42;62.84
72285;BME280;60220;53.552;10.092;2023-05-14T03:11:48;101758.53;;;12.07;64.60
72285;BME280;60220;53.552;10.092;2023-05-14T03:14:15;101757.69;;;12.05;65.08
72285;BME280;60220;53.552;10.092;2023-05-14T03:16:42;101755.88;;;12.19;63.85
72285;BME280;60220;53.552;10.092;2023-05-14T03:19:08;101754.13;;;12.18;64.43
72285;BME280;60220;53.552;10.092;2023-05-14T03:21:37;101760.19;;;12.40;64.03
72285;BME280;60220;53.552;10.092;2023-05-14T03:24:05;101760.09;;;12.58;63.26
72285;BME280;60220;53.552;10.092;2023-05-14T03:26:35;101769.84;;;12.36;63.53
72285;BME280;60220;53.552;10.092;2023-05-14T03:29:03;101767.25;;;12.21;64.13
72285;BME280;60220;53.552;10.092;2023-05-14T03:31:33;101771.66;;;12.21;64.37
72285;BME280;60220;53.552;10.092;2023-05-14T03:33:59;101768.94;;;12.43;64.06
72285;BME280;60220;53.552;10.092;2023-05-14T03:36:28;101765.31;;;12.67;63.18
72285;BME280;60220;53.552;10.092;2023-05-14T03:38:56;101778.69;;;12.20;63.59
72285;BME280;60220;53.552;10.092;2023-05-14T03:41:24;101768.97;;;12.45;63.64
72285;BME280;60220;53.552;10.092;2023-05-14T03:43:50;101773.41;;;12.22;64.42
72285;BME280;60220;53.552;10.092;2023-05-14T03:46:17;101772.44;;;12.50;63.74
72285;BME280;60220;53.552;10.092;2023-05-14T03:48:43;101769.91;;;12.24;64.93
72285;BME280;60220;53.552;10.092;2023-05-14T03:51:10;101771.66;;;12.21;64.46
72285;BME280;60220;53.552;10.092;2023-05-14T03:53:37;101768.88;;;12.56;63.98
72285;BME280;60220;53.552;10.092;2023-05-14T03:56:06;101769.03;;;12.24;65.21
72285;BME280;60220;53.552;10.092;2023-05-14T03:58:36;101770.78;;;12.22;65.23
72285;BME280;60220;53.552;10.092;2023-05-14T04:01:05;101778.69;;;12.20;64.34
72285;BME280;60220;53.552;10.092;2023-05-14T04:03:32;101777.81;;;12.20;65.24
72285;BME280;60220;53.552;10.092;2023-05-14T04:05:58;101776.94;;;12.12;66.08
72285;BME280;60220;53.552;10.092;2023-05-14T04:08:25;101780.47;;;12.15;66.19
72285;BME280;60220;53.552;10.092;2023-05-14T04:10:54;101781.22;;;12.47;64.99
72285;BME280;60220;53.552;10.092;2023-05-14T04:13:21;101769.91;;;12.18;66.42
72285;BME280;60220;53.552;10.092;2023-05-14T04:15:49;101777.81;;;12.18;66.69
72285;BME280;60220;53.552;10.092;2023-05-14T04:18:15;101775.16;;;12.27;66.35
72285;BME280;60220;53.552;10.092;2023-05-14T04:20:42;101775.19;;;12.24;65.77
72285;BME280;60220;53.552;10.092;2023-05-14T04:23:09;101775.00;;;12.61;63.94
72285;BME280;60220;53.552;10.092;2023-05-14T04:25:36;101773.28;;;12.50;65.06
72285;BME280;60220;53.552;10.092;2023-05-14T04:28:02;101778.56;;;12.50;65.63
72285;BME280;60220;53.552;10.092;2023-05-14T04:30:32;101782.06;;;12.59;64.74
72285;BME280;60220;53.552;10.092;2023-05-14T04:33:00;101772.50;;;12.35;65.50
72285;BME280;60220;53.552;10.092;2023-05-14T04:35:27;101770.72;;;12.43;65.39
72285;BME280;60220;53.552;10.092;2023-05-14T04:37:53;101763.63;;;12.60;65.16
72285;BME280;60220;53.552;10.092;2023-05-14T04:40:21;101762.59;;;12.81;64.82
72285;BME280;60220;53.552;10.092;2023-05-14T04:42:50;101759.00;;;12.99;63.51
72285;BME280;60220;53.552;10.092;2023-05-14T04:45:17;101762.59;;;12.81;63.80
72285;BME280;60220;53.552;10.092;2023-05-14T04:47:46;101766.06;;;12.90;63.34
72285;BME280;60220;53.552;10.092;2023-05-14T04:50:19;101762.50;;;12.99;63.09
72285;BME280;60220;53.552;10.092;2023-05-14T04:52:46;101769.41;;;13.20;62.61
72285;BME280;60220;53.552;10.092;2023-05-14T04:55:13;101770.25;;;13.25;63.65
72285;BME280;60220;53.552;10.092;2023-05-14T04:57:39;101766.50;;;13.52;61.82
72285;BME280;60220;53.552;10.092;2023-05-14T05:00:09;101769.06;;;13.61;61.51
72285;BME280;60220;53.552;10.092;2023-05-14T05:02:36;101774.25;;;13.70;61.23
72285;BME280;60220;53.552;10.092;2023-05-14T05:05:03;101769.75;;;13.81;61.37
72285;BME280;60220;53.552;10.092;2023-05-14T05:07:31;101770.41;;;14.01;60.85
72285;BME280;60220;53.552;10.092;2023-05-14T05:09:58;101761.84;;;14.57;58.55
72285;BME280;60220;53.552;10.092;2023-05-14T05:12:28;101762.75;;;14.55;58.52
72285;BME280;60220;53.552;10.092;2023-05-14T05:14:55;101761.22;;;14.36;59.41
72285;BME280;60220;53.552;10.092;2023-05-14T05:17:22;101762.09;;;15.00;57.72
72285;BME280;60220;53.552;10.092;2023-05-14T05:19:49;101766.69;;;15.46;55.61
72285;BME280;60220;53.552;10.092;2023-05-14T05:22:19;101767.53;;;15.48;55.69
72285;BME280;60220;53.552;10.092;2023-05-14T05:24:47;101767.41;;;15.00;57.29
72285;BME280;60220;53.552;10.092;2023-05-14T05:27:13;101763.34;;;14.77;58.23
72285;BME280;60220;53.552;10.092;2023-05-14T05:29:42;101765.72;;;15.50;55.62
72285;BME280;60220;53.552;10.092;2023-05-14T05:32:09;101771.28;;;15.85;55.16
72285;BME280;60220;53.552;10.092;2023-05-14T05:34:36;101774.00;;;15.84;55.82
72285;BME280;60220;53.552;10.092;2023-05-14T05:37:03;101776.13;;;16.10;55.22
72285;BME280;60220;53.552;10.092;2023-05-14T05:39:32;101772.94;;;15.92;54.68
72285;BME280;60220;53.552;10.092;2023-05-14T05:42:04;101772.97;;;15.89;54.69
72285;BME280;60220;53.552;10.092;2023-05-14T05:44:31;101779.84;;;16.00;53.95
72285;BME280;60220;53.552;10.092;2023-05-14T05:46:58;101773.81;;;15.93;54.61
72285;BME280;60220;53.552;10.092;2023-05-14T05:49:25;101769.41;;;16.36;54.12
72285;BME280;60220;53.552;10.092;2023-05-14T05:51:51;101774.72;;;16.36;54.10
72285;BME280;60220;53.552;10.092;2023-05-14T05:54:18;101764.72;;;16.49;53.38
72285;BME280;60220;53.552;10.092;2023-05-14T05:56:44;101768.56;;;16.77;53.01
72285;BME280;60220;53.552;10.092;2023-05-14T05:59:13;101776.38;;;17.22;51.09
72285;BME280;60220;53.552;10.092;2023-05-14T06:01:39;101767.81;;;16.71;52.73
72285;BME280;60220;53.552;10.092;2023-05-14T06:04:07;101776.09;;;16.96;50.66
72285;BME280;60220;53.552;10.092;2023-05-14T06:06:34;101774.75;;;17.16;51.44
72285;BME280;60220;53.552;10.092;2023-05-14T06:09:01;101770.66;;;17.02;51.03
72285;BME280;60220;53.552;10.092;2023-05-14T06:11:31;101779.97;;;17.55;49.48
72285;BME280;60220;53.552;10.092;2023-05-14T06:13:57;101770.53;;;17.08;51.36
72285;BME280;60220;53.552;10.092;2023-05-14T06:16:29;101774.28;;;17.35;52.39
72285;BME280;60220;53.552;10.092;2023-05-14T06:18:58;101773.75;;;17.20;52.41
72285;BME280;60220;53.552;10.092;2023-05-14T06:21:24;101778.66;;;17.37;51.24
72285;BME280;60220;53.552;10.092;2023-05-14T06:23:51;101771.00;;;17.94;50.62
72285;BME280;60220;53.552;10.092;2023-05-14T06:26:20;101767.47;;;17.61;50.47
72285;BME280;60220;53.552;10.092;2023-05-14T06:28:48;101773.75;;;17.91;50.28
72285;BME280;60220;53.552;10.092;2023-05-14T06:31:14;101776.94;;;17.72;50.27
72285;BME280;60220;53.552;10.092;2023-05-14T06:33:42;101764.03;;;16.83;51.82
72285;BME280;60220;53.552;10.092;2023-05-14T06:36:09;101769.72;;;17.77;50.04
72285;BME280;60220;53.552;10.092;2023-05-14T06:38:36;101768.06;;;18.36;48.66
72285;BME280;60220;53.552;10.092;2023-05-14T06:41:03;101770.47;;;18.43;48.80
72285;BME280;60220;53.552;10.092;2023-05-14T06:43:30;101762.81;;;18.64;47.73
72285;BME280;60220;53.552;10.092;2023-05-14T06:45:57;101763.53;;;18.98;47.01
72285;BME280;60220;53.552;10.092;2023-05-14T06:48:26;101766.47;;;19.71;45.91
72285;BME280;60220;53.552;10.092;2023-05-14T06:50:55;101761.38;;;19.37;46.74
72285;BME280;60220;53.552;10.092;2023-05-14T06:53:23;101758.44;;;19.97;46.50
72285;BME280;60220;53.552;10.092;2023-05-14T06:55:52;101763.78;;;21.14;43.06
72285;BME280;60220;53.552;10.092;2023-05-14T06:58:20;101760.72;;;21.01;42.80
72285;BME280;60220;53.552;10.092;2023-05-14T07:00:47;101763.78;;;21.14;42.25
72285;BME280;60220;53.552;10.092;2023-05-14T07:03:14;101754.66;;;21.41;43.16
72285;BME280;60220;53.552;10.092;2023-05-14T07:05:40;101755.13;;;20.39;44.37
72285;BME280;60220;53.552;10.092;2023-05-14T07:08:10;101758.44;;;21.14;42.53
72285;BME280;60220;53.552;10.092;2023-05-14T07:10:37;101750.63;;;20.41;45.19
72285;BME280;60220;53.552;10.092;2023-05-14T07:13:04;101750.44;;;21.35;41.33
72285;BME280;60220;53.552;10.092;2023-05-14T07:15:31;101746.34;;;21.47;39.58
72285;BME280;60220;53.552;10.092;2023-05-14T07:17:57;101748.16;;;21.87;39.26
72285;BME280;60220;53.552;10.092;2023-05-14T07:20:24;101741.94;;;21.02;42.14
72285;BME280;60220;53.552;10.092;2023-05-14T07:22:51;101742.16;;;21.82;40.60
72285;BME280;60220;53.552;10.092;2023-05-14T07:25:19;101730.44;;;22.06;40.70
72285;BME280;60220;53.552;10.092;2023-05-14T07:27:46;101728.09;;;21.99;40.97
72285;BME280;60220;53.552;10.092;2023-05-14T07:30:13;101736.16;;;22.17;39.02
72285;BME280;60220;53.552;10.092;2023-05-14T07:32:40;101738.22;;;21.50;40.55
72285;BME280;60220;53.552;10.092;2023-05-14T07:35:07;101730.41;;;22.83;37.75
72285;BME280;60220;53.552;10.092;2023-05-14T07:37:36;101730.84;;;22.92;37.66
72285;BME280;60220;53.552;10.092;2023-05-14T07:40:03;101731.94;;;22.51;37.29
72285;BME280;60220;53.552;10.092;2023-05-14T07:42:32;101728.53;;;20.82;41.04
72285;BME280;60220;53.552;10.092;2023-05-14T07:45:01;101727.00;;;19.57;41.30
72285;BME280;60220;53.552;10.092;2023-05-14T07:47:28;101714.97;;;21.92;36.43
72285;BME280;60220;53.552;10.092;2023-05-14T07:49:55;101716.81;;;22.31;38.09
72285;BME280;60220;53.552;10.092;2023-05-14T07:52:22;101721.34;;;20.84;39.78
72285;BME280;60220;53.552;10.092;2023-05-14T07:54:49;101725.97;;;21.24;39.09
72285;BME280;60220;53.552;10.092;2023-05-14T07:57:16;101715.13;;;22.28;36.22
72285;BME280;60220;53.552;10.092;2023-05-14T07:59:44;101714.44;;;20.79;40.00
72285;BME280;60220;53.552;10.092;2023-05-14T08:02:12;101706.56;;;22.41;37.62
72285;BME280;60220;53.552;10.092;2023-05-14T08:04:40;101706.69;;;21.78;39.97
72285;BME280;60220;53.552;10.092;2023-05-14T08:07:09;101708.72;;;22.51;35.77
72285;BME280;60220;53.552;10.092;2023-05-14T08:09:36;101707.41;;;22.60;36.64
72285;BME280;60220;53.552;10.092;2023-05-14T08:12:03;101710.63;;;23.57;36.42
72285;BME280;60220;53.552;10.092;2023-05-14T08:14:30;101704.94;;;22.93;35.14
72285;BME280;60220;53.552;10.092;2023-05-14T08:16:58;101708.47;;;23.98;34.50
72285;BME280;60220;53.552;10.092;2023-05-14T08:19:25;101703.50;;;23.39;32.71
72285;BME280;60220;53.552;10.092;2023-05-14T08:21:52;101703.50;;;23.39;34.49
72285;BME280;60220;53.552;10.092;2023-05-14T08:24:18;101702.78;;;22.26;35.90
72285;BME280;60220;53.552;10.092;2023-05-14T08:26:45;101702.63;;;22.10;35.79
72285;BME280;60220;53.552;10.092;2023-05-14T08:29:12;101700.56;;;23.09;32.84
72285;BME280;60220;53.552;10.092;2023-05-14T08:31:39;101693.66;;;22.67;36.15
72285;BME280;60220;53.552;10.092;2023-05-14T08:34:07;101694.69;;;22.46;34.56
72285;BME280;60220;53.552;10.092;2023-05-14T08:36:33;101693.75;;;23.21;32.63
72285;BME280;60220;53.552;10.092;2023-05-14T08:39:00;101685.53;;;22.70;34.33
72285;BME280;60220;53.552;10.092;2023-05-14T08:41:29;101680.09;;;23.77;31.35
72285;BME280;60220;53.552;10.092;2023-05-14T08:44:06;101685.88;;;24.19;31.00
72285;BME280;60220;53.552;10.092;2023-05-14T08:46:36;101688.19;;;23.92;30.74
72285;BME280;60220;53.552;10.092;2023-05-14T08:49:12;101684.72;;;23.04;31.68
72285;BME280;60220;53.552;10.092;2023-05-14T08:51:45;101679.81;;;24.31;30.32
72285;BME280;60220;53.552;10.092;2023-05-14T08:54:14;101675.25;;;24.16;32.98
72285;BME280;60220;53.552;10.092;2023-05-14T08:56:44;101675.66;;;24.41;29.64
72285;BME280;60220;53.552;10.092;2023-05-14T08:59:11;101668.44;;;23.78;32.35
72285;BME280;60220;53.552;10.092;2023-05-14T09:01:44;101672.03;;;23.61;32.65
72285;BME280;60220;53.552;10.092;2023-05-14T09:04:14;101668.44;;;23.43;32.57
72285;BME280;60220;53.552;10.092;2023-05-14T09:06:43;101664.31;;;23.88;30.82
72285;BME280;60220;53.552;10.092;2023-05-14T09:09:11;101657.06;;;24.38;31.03
72285;BME280;60220;53.552;10.092;2023-05-14T09:11:40;101661.44;;;24.86;28.17
72285;BME280;60220;53.552;10.092;2023-05-14T09:14:06;101648.69;;;24.60;29.95
72285;BME280;60220;53.552;10.092;2023-05-14T09:16:36;101662.41;;;23.90;30.50
72285;BME280;60220;53.552;10.092;2023-05-14T09:19:03;101656.28;;;24.52;28.50
72285;BME280;60220;53.552;10.092;2023-05-14T09:21:33;101647.75;;;24.13;30.12
72285;BME280;60220;53.552;10.092;2023-05-14T09:24:00;101649.91;;;24.55;29.34
72285;BME280;60220;53.552;10.092;2023-05-14T09:26:30;101650.84;;;24.54;28.79
72285;BME280;60220;53.552;10.092;2023-05-14T09:28:58;101646.16;;;23.93;28.19
72285;BME280;60220;53.552;10.092;2023-05-14T09:31:26;101640.00;;;23.58;27.95
72285;BME280;60220;53.552;10.092;2023-05-14T09:33:53;101647.56;;;23.15;29.53
72285;BME280;60220;53.552;10.092;2023-05-14T09:36:19;101633.91;;;23.37;29.49
72285;BME280;60220;53.552;10.092;2023-05-14T09:38:47;101645.13;;;24.44;30.33
72285;BME280;60220;53.552;10.092;2023-05-14T09:41:14;101632.81;;;23.07;31.31
72285;BME280;60220;53.552;10.092;2023-05-14T09:43:41;101631.59;;;22.59;31.48
72285;BME280;60220;53.552;10.092;2023-05-14T09:46:10;101627.53;;;23.57;30.32
72285;BME280;60220;53.552;10.092;2023-05-14T09:48:37;101633.56;;;22.92;32.78
72285;BME280;60220;53.552;10.092;2023-05-14T09:51:03;101642.44;;;23.11;29.85
72285;BME280;60220;53.552;10.092;2023-05-14T09:53:31;101630.56;;;22.62;29.09
72285;BME280;60220;53.552;10.092;2023-05-14T09:56:00;101625.66;;;22.36;31.96
72285;BME280;60220;53.552;10.092;2023-05-14T09:58:26;101620.97;;;21.63;31.97
72285;BME280;60220;53.552;10.092;2023-05-14T10:00:56;101624.22;;;21.09;32.15
72285;BME280;60220;53.552;10.092;2023-05-14T10:03:25;101619.41;;;21.77;32.69
72285;BME280;60220;53.552;10.092;2023-05-14T10:05:52;101615.97;;;21.96;30.69
72285;BME280;60220;53.552;10.092;2023-05-14T10:08:24;101612.34;;;23.23;30.15
72285;BME280;60220;53.552;10.092;2023-05-14T10:10:53;101608.38;;;22.79;29.69
72285;BME280;60220;53.552;10.092;2023-05-14T10:13:29;101602.66;;;22.67;31.33
72285;BME280;60220;53.552;10.092;2023-05-14T10:16:02;101608.31;;;22.61;30.92
72285;BME280;60220;53.552;10.092;2023-05-14T10:18:38;101605.13;;;22.36;32.53
72285;BME280;60220;53.552;10.092;2023-05-14T10:21:06;101604.56;;;22.47;32.96
72285;BME280;60220;53.552;10.092;2023-05-14T10:23:34;101603.66;;;22.84;32.36
72285;BME280;60220;53.552;10.092;2023-05-14T10:26:02;101605.13;;;22.53;31.35
72285;BME280;60220;53.552;10.092;2023-05-14T10:28:33;101603.78;;;22.07;30.40
72285;BME280;60220;53.552;10.092;2023-05-14T10:31:00;101600.66;;;22.54;30.69
72285;BME280;60220;53.552;10.092;2023-05-14T10:33:27;101596.41;;;23.03;28.56
72285;BME280;60220;53.552;10.092;2023-05-14T10:35:56;101590.66;;;22.57;29.75
72285;BME280;60220;53.552;10.092;2023-05-14T10:38:25;101593.66;;;22.87;30.98
72285;BME280;60220;53.552;10.092;2023-05-14T10:40:57;101581.75;;;23.44;30.17
72285;BME280;60220;53.552;10.092;2023-05-14T10:43:26;101595.84;;;22.79;31.66
72285;BME280;60220;53.552;10.092;2023-05-14T10:45:56;101592.31;;;22.79;30.37
72285;BME280;60220;53.552;10.092;2023-05-14T10:48:23;101589.09;;;22.53;29.07
72285;BME280;60220;53.552;10.092;2023-05-14T10:50:51;101582.72;;;23.09;30.39
72285;BME280;60220;53.552;10.092;2023-05-14T10:53:18;101579.00;;;23.29;30.58
72285;BME280;60220;53.552;10.092;2023-05-14T10:55:45;101585.19;;;23.64;28.67
72285;BME280;60220;53.552;10.092;2023-05-14T10:58:12;101581.38;;;22.28;32.14
72285;BME280;60220;53.552;10.092;2023-05-14T11:00:39;101583.38;;;22.42;31.01
72285;BME280;60220;53.552;10.092;2023-05-14T11:03:08;101579.75;;;22.26;32.37
72285;BME280;60220;53.552;10.092;2023-05-14T11:05:39;101573.72;;;21.44;33.42
72285;BME280;60220;53.552;10.092;2023-05-14T11:08:07;101566.13;;;22.12;31.76
72285;BME280;60220;53.552;10.092;2023-05-14T11:10:37;101581.78;;;21.02;33.88
72285;BME280;60220;53.552;10.092;2023-05-14T11:13:04;101567.31;;;21.67;33.55
72285;BME280;60220;53.552;10.092;2023-05-14T11:15:32;101567.75;;;22.16;33.23
72285;BME280;60220;53.552;10.092;2023-05-14T11:17:59;101566.47;;;22.78;31.94
72285;BME280;60220;53.552;10.092;2023-05-14T11:20:29;101569.28;;;21.82;33.26
72285;BME280;60220;53.552;10.092;2023-05-14T11:22:59;101564.13;;;22.36;32.66
72285;BME280;60220;53.552;10.092;2023-05-14T11:25:28;101567.78;;;22.69;33.74
72285;BME280;60220;53.552;10.092;2023-05-14T11:27:55;101559.56;;;22.73;32.51
72285;BME280;60220;53.552;10.092;2023-05-14T11:30:23;101548.97;;;21.99;33.58
72285;BME280;60220;53.552;10.092;2023-05-14T11:32:50;101555.34;;;21.96;32.50
72285;BME280;60220;53.552;10.092;2023-05-14T11:35:17;101556.91;;;22.19;34.01
72285;BME280;60220;53.552;10.092;2023-05-14T11:37:50;101545.22;;;22.92;32.91
72285;BME280;60220;53.552;10.092;2023-05-14T11:40:17;101546.03;;;22.22;32.94
72285;BME280;60220;53.552;10.092;2023-05-14T11:42:49;101535.94;;;22.10;31.52
72285;BME280;60220;53.552;10.092;2023-05-14T11:45:23;101542.72;;;21.79;33.37
72285;BME280;60220;53.552;10.092;2023-05-14T11:47:51;101538.19;;;21.42;33.09
72285;BME280;60220;53.552;10.092;2023-05-14T11:50:18;101534.69;;;21.61;33.10
72285;BME280;60220;53.552;10.092;2023-05-14T11:52:44;101532.13;;;21.39;31.46
72285;BME280;60220;53.552;10.092;2023-05-14T11:55:16;101527.72;;;21.96;30.88
72285;BME280;60220;53.552;10.092;2023-05-14T11:57:43;101529.84;;;22.25;30.92
72285;BME280;60220;53.552;10.092;2023-05-14T12:00:11;101529.16;;;22.03;30.66
72285;BME280;60220;53.552;10.092;2023-05-14T12:02:43;101531.44;;;22.29;29.30
72285;BME280;60220;53.552;10.092;2023-05-14T12:05:11;101529.34;;;22.17;31.16
72285;BME280;60220;53.552;10.092;2023-05-14T12:07:38;101519.81;;;21.74;30.84
72285;BME280;60220;53.552;10.092;2023-05-14T12:10:11;101516.56;;;22.23;31.47
72285;BME280;60220;53.552;10.092;2023-05-14T12:12:39;101518.09;;;21.92;32.40
72285;BME280;60220;53.552;10.092;2023-05-14T12:15:10;101508.97;;;21.77;32.15
72285;BME280;60220;53.552;10.092;2023-05-14T12:17:39;101514.47;;;22.47;30.60
72285;BME280;60220;53.552;10.092;2023-05-14T12:20:08;101515.13;;;21.98;32.25
72285;BME280;60220;53.552;10.092;2023-05-14T12:22:37;101520.03;;;22.07;31.29
72285;BME280;60220;53.552;10.092;2023-05-14T12:25:09;101512.81;;;21.90;32.39
72285;BME280;60220;53.552;10.092;2023-05-14T12:27:38;101511.25;;;22.05;32.56
72285;BME280;60220;53.552;10.092;2023-05-14T12:30:06;101506.81;;;22.76;30.36
72285;BME280;60220;53.552;10.092;2023-05-14T12:32:34;101513.56;;;22.65;30.97
72285;BME280;60220;53.552;10.092;2023-05-14T12:35:04;101497.25;;;22.70;30.22
72285;BME280;60220;53.552;10.092;2023-05-14T12:37:30;101495.75;;;23.16;30.30
72285;BME280;60220;53.552;10.092;2023-05-14T12:39:57;101499.69;;;22.92;30.25
72285;BME280;60220;53.552;10.092;2023-05-14T12:42:24;101499.38;;;22.63;30.05
72285;BME280;60220;53.552;10.092;2023-05-14T12:44:55;101489.78;;;23.11;31.62